createdAt,value
2022-10-02T00:01:24.514Z,97.9
2022-10-02T00:13:24.386Z,97.9
2022-10-02T00:25:24.381Z,98.0
2022-10-02T00:37:24.381Z,98.0
2022-10-02T00:49:24.382Z,98.0
2022-10-02T01:01:24.475Z,98.0
2022-10-02T01:13:24.400Z,98.0
2022-10-02T01:25:24.404Z,98.0
2022-10-02T01:37:24.450Z,98.0
2022-10-02T01:49:24.451Z,98.0
2022-10-02T02:01:24.461Z,98.0
2022-10-02T02:13:24.487Z,98.0
2022-10-02T02:25:24.386Z,98.0
2022-10-02T02:37:24.487Z,98.0
2022-10-02T02:49:24.379Z,98.0
2022-10-02T03:01:24.427Z,98.0
2022-10-02T03:13:24.381Z,98.0
2022-10-02T03:25:24.382Z,98.1
2022-10-02T03:37:24.392Z,98.1
2022-10-02T03:49:24.387Z,98.1
2022-10-02T04:01:24.426Z,98.1
2022-10-02T04:13:24.383Z,98.0
2022-10-02T04:25:24.382Z,98.0
2022-10-02T04:37:24.378Z,98.1
2022-10-02T04:49:24.382Z,98.1
2022-10-02T05:01:24.883Z,98.0
2022-10-02T05:13:24.470Z,98.1
2022-10-02T05:25:24.382Z,98.0
2022-10-02T05:37:24.385Z,98.0
2022-10-02T05:49:24.389Z,98.0
2022-10-02T06:01:24.624Z,98.0
2022-10-02T06:13:24.510Z,98.0
2022-10-02T06:25:24.654Z,98.0
2022-10-02T06:37:24.636Z,98.0
2022-10-02T06:49:24.618Z,98.0
2022-10-02T07:01:24.742Z,98.0
2022-10-02T07:13:24.486Z,98.0
2022-10-02T07:25:24.385Z,98.0
2022-10-02T07:37:25.391Z,98.0
2022-10-02T07:49:24.390Z,98.1
2022-10-02T08:01:24.437Z,98.0
2022-10-02T08:13:24.437Z,98.1
2022-10-02T08:25:24.449Z,98.1
2022-10-02T08:46:46.267Z,98.1
2022-10-02T08:58:46.163Z,98.1
2022-10-02T09:10:46.165Z,98.2
2022-10-02T09:22:46.281Z,98.2
2022-10-02T09:34:46.169Z,98.2
2022-10-02T09:46:46.285Z,98.2
2022-10-02T09:58:46.262Z,98.2
2022-10-02T10:10:46.171Z,98.3
2022-10-02T10:22:46.288Z,98.3
2022-10-02T10:34:46.342Z,98.3
2022-10-02T10:46:46.264Z,98.3
2022-10-02T10:58:46.260Z,98.4
2022-10-02T11:10:46.290Z,98.4
2022-10-02T11:22:46.603Z,98.4
2022-10-02T11:34:46.176Z,98.3
2022-10-02T11:46:46.179Z,98.4
2022-10-02T11:58:46.293Z,97.3
2022-10-02T12:10:46.208Z,96.0
2022-10-02T12:22:46.172Z,94.2
2022-10-02T12:34:46.178Z,94.4
2022-10-02T12:46:46.292Z,89.8
2022-10-02T12:58:46.242Z,86.1
2022-10-02T13:10:46.294Z,83.2
2022-10-02T13:22:46.172Z,84.1
2022-10-02T13:34:46.179Z,87.1
2022-10-02T13:46:46.256Z,87.2
2022-10-02T13:58:46.250Z,86.9
2022-10-02T14:10:46.219Z,88.4
2022-10-02T14:22:46.221Z,87.7
2022-10-02T14:34:46.224Z,86.8
2022-10-02T14:46:46.288Z,90.7
2022-10-02T14:58:46.307Z,90.9
2022-10-02T15:10:46.258Z,91.6
2022-10-02T15:22:46.267Z,93.8
2022-10-02T15:34:46.245Z,94.6
2022-10-02T15:46:46.264Z,96.3
2022-10-02T15:58:46.239Z,96.1
2022-10-02T16:10:46.268Z,96.2
2022-10-02T16:22:46.294Z,94.5
2022-10-02T16:34:46.170Z,96.0
2022-10-02T16:46:46.336Z,97.0
2022-10-02T16:58:46.271Z,98.2
2022-10-02T17:10:46.178Z,98.1
2022-10-02T17:22:46.166Z,98.1
2022-10-02T17:34:46.173Z,98.0
2022-10-02T17:46:46.274Z,98.0
2022-10-02T17:58:46.169Z,97.9
2022-10-02T18:10:46.167Z,97.9
2022-10-02T18:22:46.170Z,98.0
2022-10-02T18:34:46.865Z,98.0
2022-10-02T18:46:46.258Z,98.0
2022-10-02T18:58:46.221Z,98.0
2022-10-02T19:10:46.164Z,98.0
2022-10-02T19:22:46.168Z,98.0
2022-10-02T19:34:46.171Z,98.0
2022-10-02T19:46:46.166Z,98.0
2022-10-02T19:58:46.169Z,98.0
2022-10-02T20:10:46.169Z,98.0
2022-10-02T20:22:46.165Z,97.9
2022-10-02T20:34:46.171Z,97.9
2022-10-02T20:46:46.168Z,97.9
2022-10-02T20:58:46.165Z,97.8
2022-10-02T21:10:46.172Z,97.8
2022-10-02T21:22:46.171Z,97.8
2022-10-02T21:34:46.178Z,97.8
2022-10-02T21:46:46.778Z,97.7
2022-10-02T21:58:46.171Z,97.8
2022-10-02T22:10:46.169Z,97.8
2022-10-02T22:22:46.185Z,97.8
2022-10-02T22:34:46.174Z,97.8
2022-10-02T22:46:46.324Z,97.8
2022-10-02T22:58:46.164Z,97.7
2022-10-02T23:10:46.237Z,97.7
2022-10-02T23:22:46.172Z,97.7
2022-10-02T23:34:46.171Z,97.6
2022-10-02T23:46:46.291Z,97.6
2022-10-02T23:58:46.171Z,97.6
